createdAt,value
2022-09-10T00:00:39.786Z,16.68
2022-09-10T00:01:39.832Z,16.71
2022-09-10T00:02:39.822Z,16.68
2022-09-10T00:03:39.755Z,16.75
2022-09-10T00:04:39.809Z,16.71
2022-09-10T00:05:39.718Z,16.71
2022-09-10T00:06:40.719Z,16.71
2022-09-10T00:07:39.716Z,16.81
2022-09-10T00:08:39.791Z,16.79
2022-09-10T00:09:39.766Z,16.71
2022-09-10T00:10:39.687Z,16.78
2022-09-10T00:11:39.819Z,16.81
2022-09-10T00:12:39.781Z,16.81
2022-09-10T00:13:39.683Z,16.87
2022-09-10T00:14:40.587Z,16.81
2022-09-10T00:15:39.695Z,16.89
2022-09-10T00:16:39.641Z,16.91
2022-09-10T00:17:39.635Z,16.87
2022-09-10T00:18:39.790Z,16.90
2022-09-10T00:19:39.620Z,16.78
2022-09-10T00:20:39.686Z,16.81
2022-09-10T00:21:39.693Z,16.79
2022-09-10T00:22:39.598Z,16.76
2022-09-10T00:23:39.628Z,16.91
2022-09-10T00:24:39.748Z,16.83
2022-09-10T00:25:39.603Z,16.83
2022-09-10T00:26:39.905Z,16.83
2022-09-10T00:27:39.697Z,16.91
2022-09-10T00:28:39.751Z,16.94
2022-09-10T00:29:39.661Z,16.99
2022-09-10T00:30:39.558Z,16.99
2022-09-10T00:31:39.577Z,17.01
2022-09-10T00:32:39.521Z,16.96
2022-09-10T00:33:39.536Z,17.04
2022-09-10T00:34:39.514Z,16.99
2022-09-10T00:35:40.519Z,16.94
2022-09-10T00:36:39.487Z,17.08
2022-09-10T00:37:39.493Z,17.02
2022-09-10T00:38:39.666Z,17.06
2022-09-10T00:39:39.497Z,17.12
2022-09-10T00:40:39.486Z,17.08
2022-09-10T00:41:39.905Z,17.11
2022-09-10T00:42:39.902Z,17.14
2022-09-10T00:43:39.467Z,17.06
2022-09-10T00:44:39.443Z,17.19
2022-09-10T00:45:39.505Z,17.20
2022-09-10T00:46:39.422Z,17.19
2022-09-10T00:47:39.412Z,17.14
2022-09-10T00:48:39.549Z,17.11
2022-09-10T00:49:39.434Z,17.12
2022-09-10T00:50:39.464Z,17.14
2022-09-10T00:51:39.381Z,17.14
2022-09-10T00:52:40.046Z,17.22
2022-09-10T00:53:40.423Z,17.16
2022-09-10T00:54:39.375Z,17.15
2022-09-10T00:55:39.405Z,17.16
2022-09-10T00:56:39.335Z,17.16
2022-09-10T00:57:39.363Z,17.09
2022-09-10T00:58:39.488Z,17.22
2022-09-10T00:59:39.324Z,17.14
2022-09-10T01:00:39.369Z,17.09
2022-09-10T01:01:39.373Z,17.12
2022-09-10T01:02:39.281Z,17.15
2022-09-10T01:03:39.416Z,17.11
2022-09-10T01:04:39.298Z,17.15
2022-09-10T01:05:39.298Z,17.06
2022-09-10T01:06:39.244Z,17.04
2022-09-10T01:07:39.280Z,17.04
2022-09-10T01:08:39.356Z,17.01
2022-09-10T01:09:39.237Z,17.02
2022-09-10T01:10:39.287Z,16.99
2022-09-10T01:11:39.236Z,16.90
2022-09-10T01:12:39.414Z,16.89
2022-09-10T01:13:39.199Z,16.86
2022-09-10T01:14:39.185Z,16.89
2022-09-10T01:15:39.206Z,16.86
2022-09-10T01:16:39.171Z,16.76
2022-09-10T01:17:39.166Z,16.71
2022-09-10T01:18:39.916Z,16.86
2022-09-10T01:19:39.731Z,16.79
2022-09-10T01:20:39.191Z,16.79
2022-09-10T01:21:39.173Z,16.66
2022-09-10T01:22:39.151Z,16.72
2022-09-10T01:23:40.102Z,16.60
2022-09-10T01:24:39.131Z,16.65
2022-09-10T01:25:39.120Z,16.65
2022-09-10T01:26:39.143Z,16.64
2022-09-10T01:27:39.158Z,16.61
2022-09-10T01:28:39.196Z,16.58
2022-09-10T01:29:39.064Z,16.61
2022-09-10T01:30:39.091Z,16.60
2022-09-10T01:31:39.109Z,16.53
2022-09-10T01:32:39.111Z,16.50
2022-09-10T01:33:39.151Z,16.38
2022-09-10T01:34:39.024Z,16.47
2022-09-10T01:35:39.044Z,16.46
2022-09-10T01:36:39.050Z,16.46
2022-09-10T01:37:39.006Z,16.43
2022-09-10T01:38:39.098Z,16.43
2022-09-10T01:39:39.069Z,16.38
2022-09-10T01:40:39.175Z,16.41
2022-09-10T01:41:39.000Z,16.38
2022-09-10T01:42:39.042Z,16.32
2022-09-10T01:43:38.982Z,16.32
2022-09-10T01:44:39.014Z,16.32
2022-09-10T01:45:39.016Z,16.24
2022-09-10T01:46:38.941Z,16.35
2022-09-10T01:47:38.971Z,16.28
2022-09-10T01:48:39.063Z,16.24
2022-09-10T01:49:38.906Z,16.31
2022-09-10T01:50:38.956Z,16.24
2022-09-10T01:51:38.900Z,16.28
2022-09-10T01:52:38.894Z,16.20
2022-09-10T01:53:38.927Z,16.13
2022-09-10T01:54:38.874Z,16.05
2022-09-10T01:55:38.929Z,16.04
2022-09-10T01:56:38.855Z,16.05
2022-09-10T01:57:38.879Z,16.04
2022-09-10T01:58:38.972Z,16.08
2022-09-10T01:59:38.827Z,15.98
2022-09-10T02:00:38.904Z,15.97
2022-09-10T02:01:38.814Z,15.92
2022-09-10T02:02:38.802Z,15.91
2022-09-10T02:03:38.797Z,15.91
2022-09-10T02:04:38.787Z,15.97
2022-09-10T02:05:38.806Z,15.94
2022-09-10T02:06:38.774Z,16.02
2022-09-10T02:07:38.758Z,16.04
2022-09-10T02:08:39.888Z,16.02
2022-09-10T02:09:38.787Z,16.01
2022-09-10T02:10:39.614Z,16.00
2022-09-10T02:11:38.734Z,16.08
2022-09-10T02:12:38.790Z,16.02
2022-09-10T02:13:38.726Z,16.00
2022-09-10T02:14:38.726Z,16.05
2022-09-10T02:15:38.725Z,16.15
2022-09-10T02:16:38.769Z,16.10
2022-09-10T02:17:39.620Z,16.00
2022-09-10T02:18:38.735Z,16.02
2022-09-10T02:19:38.673Z,15.92
2022-09-10T02:20:38.689Z,16.00
2022-09-10T02:21:39.611Z,15.94
2022-09-10T02:22:38.671Z,16.01
2022-09-10T02:23:38.654Z,15.94
2022-09-10T02:24:38.632Z,15.92
2022-09-10T02:25:38.680Z,16.00
2022-09-10T02:26:38.683Z,16.08
2022-09-10T02:27:38.613Z,15.92
2022-09-10T02:28:38.689Z,16.02
2022-09-10T02:29:38.590Z,16.01
2022-09-10T02:30:38.586Z,15.98
2022-09-10T02:31:38.682Z,15.95
2022-09-10T02:32:38.576Z,16.02
2022-09-10T02:33:38.578Z,16.00
2022-09-10T02:34:38.554Z,16.04
2022-09-10T02:35:38.546Z,16.09
2022-09-10T02:36:38.569Z,16.08
2022-09-10T02:37:38.596Z,16.05
2022-09-10T02:38:38.626Z,16.08
2022-09-10T02:39:38.762Z,16.01
2022-09-10T02:40:38.507Z,16.00
2022-09-10T02:41:38.554Z,16.01
2022-09-10T02:42:38.491Z,16.01
2022-09-10T02:43:38.483Z,16.04
2022-09-10T02:44:38.471Z,16.05
2022-09-10T02:45:39.172Z,16.05
2022-09-10T02:46:38.463Z,16.04
2022-09-10T02:47:38.468Z,16.09
2022-09-10T02:48:38.530Z,16.15
2022-09-10T02:49:38.442Z,16.10
2022-09-10T02:50:38.430Z,16.09
2022-09-10T02:51:38.451Z,16.16
2022-09-10T02:52:38.413Z,16.12
2022-09-10T02:53:38.420Z,16.12
2022-09-10T02:54:38.395Z,16.09
2022-09-10T02:55:38.391Z,16.08
2022-09-10T02:56:38.404Z,16.05
2022-09-10T02:57:38.369Z,16.01
2022-09-10T02:58:38.473Z,15.97
2022-09-10T02:59:38.361Z,16.01
2022-09-10T03:00:38.348Z,15.97
2022-09-10T03:01:38.425Z,16.00
2022-09-10T03:02:38.332Z,15.92
2022-09-10T03:03:38.323Z,16.01
2022-09-10T03:04:38.327Z,15.94
2022-09-10T03:05:38.312Z,15.92
2022-09-10T03:06:38.384Z,15.94
2022-09-10T03:07:38.293Z,15.97
2022-09-10T03:08:38.286Z,15.90
2022-09-10T03:09:38.283Z,15.84
2022-09-10T03:10:38.267Z,15.91
2022-09-10T03:11:38.291Z,15.77
2022-09-10T03:12:38.292Z,15.77
2022-09-10T03:13:38.251Z,15.70
2022-09-10T03:14:38.241Z,15.79
2022-09-10T03:15:38.243Z,15.67
2022-09-10T03:16:38.311Z,15.67
2022-09-10T03:17:38.216Z,15.62
2022-09-10T03:18:38.358Z,15.59
2022-09-10T03:19:38.201Z,15.55
2022-09-10T03:20:38.199Z,15.54
2022-09-10T03:21:38.215Z,15.36
2022-09-10T03:22:38.175Z,15.47
2022-09-10T03:23:38.171Z,15.40
2022-09-10T03:24:38.157Z,15.47
2022-09-10T03:25:38.151Z,15.43
2022-09-10T03:26:38.163Z,15.35
2022-09-10T03:27:38.148Z,15.36
2022-09-10T03:28:38.150Z,15.31
2022-09-10T03:29:38.117Z,15.24
2022-09-10T03:30:38.114Z,15.15
2022-09-10T03:31:38.156Z,15.14
2022-09-10T03:32:38.097Z,15.17
2022-09-10T03:33:38.086Z,15.04
2022-09-10T03:34:38.066Z,15.03
2022-09-10T03:35:39.094Z,14.97
2022-09-10T03:36:38.053Z,14.86
2022-09-10T03:37:38.046Z,14.85
2022-09-10T03:38:38.041Z,14.89
2022-09-10T03:39:38.068Z,14.91
2022-09-10T03:40:38.074Z,14.97
2022-09-10T03:41:38.018Z,14.92
2022-09-10T03:42:38.012Z,14.86
2022-09-10T03:43:38.008Z,14.84
2022-09-10T03:44:37.993Z,14.92
2022-09-10T03:45:38.152Z,14.86
2022-09-10T03:46:37.976Z,14.89
2022-09-10T03:47:37.970Z,14.81
2022-09-10T03:48:38.097Z,14.84
2022-09-10T03:49:37.952Z,14.86
2022-09-10T03:50:37.968Z,14.84
2022-09-10T03:51:37.935Z,14.86
2022-09-10T03:52:37.932Z,14.85
2022-09-10T03:53:37.914Z,14.82
2022-09-10T03:54:37.912Z,14.73
2022-09-10T03:55:37.929Z,14.81
2022-09-10T03:56:37.892Z,14.78
2022-09-10T03:57:37.888Z,14.84
2022-09-10T03:58:37.884Z,14.81
2022-09-10T03:59:37.876Z,14.77
2022-09-10T04:00:37.894Z,14.69
2022-09-10T04:01:37.853Z,14.84
2022-09-10T04:02:37.858Z,14.91
2022-09-10T04:03:37.840Z,14.84
2022-09-10T04:04:37.828Z,14.89
2022-09-10T04:05:37.852Z,14.84
2022-09-10T04:06:37.818Z,14.79
2022-09-10T04:07:37.807Z,14.84
2022-09-10T04:08:37.803Z,14.69
2022-09-10T04:09:37.794Z,14.70
2022-09-10T04:10:37.823Z,14.88
2022-09-10T04:11:37.784Z,14.89
2022-09-10T04:12:37.782Z,14.85
2022-09-10T04:13:37.771Z,14.78
2022-09-10T04:14:37.758Z,14.89
2022-09-10T04:15:37.774Z,14.84
2022-09-10T04:16:37.797Z,14.84
2022-09-10T04:17:37.737Z,14.78
2022-09-10T04:18:37.726Z,14.88
2022-09-10T04:19:37.721Z,14.84
2022-09-10T04:20:37.739Z,14.70
2022-09-10T04:21:37.706Z,14.85
2022-09-10T04:22:37.723Z,14.96
2022-09-10T04:23:37.694Z,14.91
2022-09-10T04:24:37.679Z,14.81
2022-09-10T04:25:38.704Z,14.78
2022-09-10T04:26:37.669Z,14.84
2022-09-10T04:27:37.655Z,14.84
2022-09-10T04:28:37.645Z,14.82
2022-09-10T04:29:37.642Z,14.65
2022-09-10T04:30:37.632Z,14.82
2022-09-10T04:31:37.699Z,14.68
2022-09-10T04:32:37.613Z,14.77
2022-09-10T04:33:37.606Z,14.79
2022-09-10T04:34:37.601Z,14.60
2022-09-10T04:35:37.622Z,14.72
2022-09-10T04:36:37.585Z,14.63
2022-09-10T04:37:37.584Z,14.63
2022-09-10T04:38:37.657Z,14.68
2022-09-10T04:39:37.603Z,14.55
2022-09-10T04:40:37.587Z,14.58
2022-09-10T04:41:37.553Z,14.59
2022-09-10T04:42:37.556Z,14.54
2022-09-10T04:43:37.538Z,14.50
2022-09-10T04:44:37.528Z,14.53
2022-09-10T04:45:37.572Z,14.48
2022-09-10T04:46:37.524Z,14.48
2022-09-10T04:47:37.511Z,14.58
2022-09-10T04:48:37.524Z,14.43
2022-09-10T04:49:37.487Z,14.47
2022-09-10T04:50:37.508Z,14.47
2022-09-10T04:51:37.473Z,14.40
2022-09-10T04:52:37.473Z,14.40
2022-09-10T04:53:37.460Z,14.51
2022-09-10T04:54:37.475Z,14.40
2022-09-10T04:55:37.465Z,14.55
2022-09-10T04:56:37.433Z,14.62
2022-09-10T04:57:37.418Z,14.53
2022-09-10T04:58:39.350Z,14.48
2022-09-10T04:59:38.412Z,14.59
2022-09-10T05:00:37.438Z,14.62
2022-09-10T05:01:37.396Z,14.62
2022-09-10T05:02:37.386Z,14.62
2022-09-10T05:03:38.382Z,14.69
2022-09-10T05:04:37.396Z,14.60
2022-09-10T05:05:37.397Z,14.78
2022-09-10T05:06:37.357Z,14.70
2022-09-10T05:07:37.352Z,14.78
2022-09-10T05:08:37.406Z,14.86
2022-09-10T05:09:37.341Z,14.82
2022-09-10T05:10:37.329Z,14.86
2022-09-10T05:11:37.344Z,14.91
2022-09-10T05:12:37.312Z,14.86
2022-09-10T05:13:37.315Z,15.02
2022-09-10T05:14:37.299Z,15.09
2022-09-10T05:15:37.317Z,15.21
2022-09-10T05:16:37.370Z,15.35
2022-09-10T05:17:37.273Z,15.40
2022-09-10T05:18:37.320Z,15.72
2022-09-10T05:19:37.258Z,15.90
2022-09-10T05:20:37.270Z,16.28
2022-09-10T05:21:37.250Z,16.50
2022-09-10T05:22:40.512Z,17.04
2022-09-10T05:23:38.220Z,17.64
2022-09-10T05:24:37.253Z,18.26
2022-09-10T05:25:37.227Z,18.60
2022-09-10T05:26:37.202Z,18.83
2022-09-10T05:27:37.189Z,18.86
2022-09-10T05:28:37.236Z,18.75
2022-09-10T05:29:37.175Z,18.44
2022-09-10T05:30:37.193Z,18.22
2022-09-10T05:31:37.197Z,18.10
2022-09-10T05:32:37.153Z,18.08
2022-09-10T05:33:37.142Z,18.49
2022-09-10T05:34:37.138Z,18.71
2022-09-10T05:35:37.161Z,18.50
2022-09-10T05:36:37.117Z,18.37
2022-09-10T05:37:37.121Z,18.15
2022-09-10T05:38:39.984Z,17.95
2022-09-10T05:39:38.107Z,17.80
2022-09-10T05:40:37.156Z,17.70
2022-09-10T05:41:37.091Z,17.67
2022-09-10T05:42:37.078Z,17.42
2022-09-10T05:43:37.067Z,17.39
2022-09-10T05:44:37.057Z,17.27
2022-09-10T05:45:37.097Z,17.33
2022-09-10T05:46:37.044Z,17.27
2022-09-10T05:47:37.036Z,17.12
2022-09-10T05:48:41.386Z,17.16
2022-09-10T05:49:38.018Z,17.08
2022-09-10T05:50:37.032Z,17.11
2022-09-10T05:51:37.003Z,17.15
2022-09-10T05:52:36.997Z,17.11
2022-09-10T05:53:36.986Z,17.11
2022-09-10T05:54:36.977Z,17.27
2022-09-10T05:55:37.000Z,17.11
2022-09-10T05:56:36.959Z,17.19
2022-09-10T05:57:36.959Z,17.16
2022-09-10T05:58:36.964Z,17.15
2022-09-10T05:59:36.936Z,17.24
2022-09-10T06:00:36.960Z,17.16
2022-09-10T06:01:36.928Z,17.31
2022-09-10T06:02:37.081Z,17.16
2022-09-10T06:03:36.916Z,17.23
2022-09-10T06:04:36.906Z,17.23
2022-09-10T06:05:36.916Z,17.29
2022-09-10T06:06:36.881Z,17.20
2022-09-10T06:07:36.923Z,17.34
2022-09-10T06:08:37.011Z,17.34
2022-09-10T06:09:36.862Z,17.33
2022-09-10T06:10:36.876Z,17.34
2022-09-10T06:11:36.846Z,17.36
2022-09-10T06:12:36.838Z,17.34
2022-09-10T06:13:36.829Z,17.26
2022-09-10T06:14:36.818Z,17.22
2022-09-10T06:15:36.838Z,17.30
2022-09-10T06:16:36.854Z,17.41
2022-09-10T06:17:36.796Z,17.36
2022-09-10T06:18:36.827Z,17.31
2022-09-10T06:19:36.776Z,17.30
2022-09-10T06:20:36.794Z,17.34
2022-09-10T06:21:36.767Z,17.33
2022-09-10T06:22:36.758Z,17.34
2022-09-10T06:23:36.740Z,17.41
2022-09-10T06:24:36.737Z,17.36
2022-09-10T06:25:36.758Z,17.30
2022-09-10T06:26:36.723Z,17.33
2022-09-10T06:27:36.714Z,17.39
2022-09-10T06:28:36.824Z,17.42
2022-09-10T06:29:36.715Z,17.39
2022-09-10T06:30:36.755Z,17.42
2022-09-10T06:31:36.678Z,17.42
2022-09-10T06:32:36.677Z,17.44
2022-09-10T06:33:36.670Z,17.49
2022-09-10T06:34:36.663Z,17.46
2022-09-10T06:35:36.677Z,17.46
2022-09-10T06:36:36.644Z,17.57
2022-09-10T06:37:36.637Z,17.54
2022-09-10T06:38:36.631Z,17.56
2022-09-10T06:39:36.647Z,17.51
2022-09-10T06:40:36.652Z,17.52
2022-09-10T06:41:36.607Z,17.59
2022-09-10T06:42:36.608Z,17.49
2022-09-10T06:43:36.684Z,17.49
2022-09-10T06:44:36.588Z,17.52
2022-09-10T06:45:36.632Z,17.54
2022-09-10T06:47:25.794Z,17.48
2022-09-10T06:48:19.134Z,17.51
2022-09-10T06:48:49.604Z,17.56
2022-09-10T06:49:38.541Z,17.56
2022-09-10T06:50:36.558Z,17.56
2022-09-10T06:51:36.535Z,17.68
2022-09-10T06:52:36.522Z,17.70
2022-09-10T06:53:36.514Z,17.76
2022-09-10T06:54:36.508Z,17.72
2022-09-10T06:55:36.527Z,17.83
2022-09-10T06:56:36.488Z,17.92
2022-09-10T06:57:36.476Z,17.86
2022-09-10T06:58:36.506Z,17.82
2022-09-10T06:59:36.461Z,17.92
2022-09-10T07:00:36.479Z,17.94
2022-09-10T07:01:36.476Z,17.98
2022-09-10T07:02:36.437Z,18.04
2022-09-10T07:03:36.430Z,17.98
2022-09-10T07:04:36.419Z,18.15
2022-09-10T07:05:36.441Z,18.07
2022-09-10T07:06:36.414Z,18.18
2022-09-10T07:07:36.397Z,18.11
2022-09-10T07:08:36.443Z,18.10
2022-09-10T07:09:36.380Z,18.08
2022-09-10T07:10:36.394Z,18.07
2022-09-10T07:11:41.222Z,18.01
2022-09-10T07:12:38.351Z,18.03
2022-09-10T07:13:36.347Z,18.04
2022-09-10T07:14:36.338Z,18.23
2022-09-10T07:15:36.411Z,18.15
2022-09-10T07:16:36.319Z,18.15
2022-09-10T07:17:36.313Z,18.22
2022-09-10T07:18:36.363Z,18.15
2022-09-10T07:19:36.309Z,18.22
2022-09-10T07:20:36.317Z,18.13
2022-09-10T07:21:36.311Z,18.19
2022-09-10T07:22:36.273Z,18.20
2022-09-10T07:23:36.266Z,18.26
2022-09-10T07:24:36.258Z,18.37
2022-09-10T07:25:36.278Z,18.37
2022-09-10T07:26:36.256Z,18.43
2022-09-10T07:27:36.232Z,18.38
2022-09-10T07:28:36.333Z,18.26
2022-09-10T07:29:36.220Z,18.26
2022-09-10T07:30:36.250Z,18.40
2022-09-10T07:31:36.244Z,18.23
2022-09-10T07:32:36.193Z,18.31
2022-09-10T07:33:36.186Z,18.35
2022-09-10T07:34:36.179Z,18.41
2022-09-10T07:35:36.196Z,18.35
2022-09-10T07:36:36.166Z,18.40
2022-09-10T07:37:36.163Z,18.45
2022-09-10T07:38:36.167Z,18.44
2022-09-10T07:39:36.202Z,18.58
2022-09-10T07:40:36.162Z,18.66
2022-09-10T07:41:36.129Z,18.73
2022-09-10T07:42:36.121Z,18.81
2022-09-10T07:43:36.111Z,18.83
2022-09-10T07:44:36.100Z,18.86
2022-09-10T07:45:36.152Z,18.86
2022-09-10T07:46:36.090Z,18.86
2022-09-10T07:47:36.080Z,18.77
2022-09-10T07:48:36.199Z,18.77
2022-09-10T07:49:36.066Z,18.88
2022-09-10T07:50:36.083Z,18.95
2022-09-10T07:51:36.057Z,19.02
2022-09-10T07:52:36.039Z,19.14
2022-09-10T07:53:36.030Z,19.11
2022-09-10T07:54:36.029Z,19.26
2022-09-10T07:55:37.043Z,19.24
2022-09-10T07:56:36.028Z,19.15
2022-09-10T07:57:35.998Z,19.02
2022-09-10T07:58:36.211Z,19.14
2022-09-10T07:59:35.981Z,19.12
2022-09-10T08:00:36.008Z,18.96
2022-09-10T08:01:35.977Z,18.99
2022-09-10T08:02:36.010Z,18.86
2022-09-10T08:03:35.953Z,18.84
2022-09-10T08:04:37.144Z,18.75
2022-09-10T08:05:36.963Z,18.81
2022-09-10T08:06:35.929Z,18.86
2022-09-10T08:07:35.911Z,18.90
2022-09-10T08:08:36.913Z,18.86
2022-09-10T08:09:35.927Z,18.90
2022-09-10T08:10:35.926Z,18.92
2022-09-10T08:11:35.897Z,18.88
2022-09-10T08:12:35.922Z,18.80
2022-09-10T08:13:35.875Z,18.77
2022-09-10T08:14:35.856Z,18.88
2022-09-10T08:15:36.902Z,18.81
2022-09-10T08:16:35.851Z,18.83
2022-09-10T08:17:35.845Z,18.81
2022-09-10T08:18:35.876Z,18.81
2022-09-10T08:19:35.826Z,18.84
2022-09-10T08:20:35.841Z,18.89
2022-09-10T08:21:35.807Z,18.80
2022-09-10T08:22:35.800Z,18.96
2022-09-10T08:23:35.802Z,19.02
2022-09-10T08:24:35.786Z,18.98
2022-09-10T08:25:35.801Z,19.07
2022-09-10T08:26:35.765Z,19.07
2022-09-10T08:27:35.756Z,19.08
2022-09-10T08:28:35.802Z,18.96
2022-09-10T08:29:35.740Z,18.96
2022-09-10T08:30:35.768Z,19.02
2022-09-10T08:31:35.725Z,19.08
2022-09-10T08:32:35.722Z,19.12
2022-09-10T08:33:35.710Z,19.08
2022-09-10T08:34:35.700Z,19.07
2022-09-10T08:35:35.723Z,18.99
2022-09-10T08:36:35.685Z,19.21
2022-09-10T08:37:35.681Z,19.18
2022-09-10T08:38:35.719Z,19.16
2022-09-10T08:39:35.676Z,19.29
2022-09-10T08:40:35.656Z,19.39
2022-09-10T08:41:35.694Z,19.49
2022-09-10T08:42:35.642Z,19.44
2022-09-10T08:43:35.634Z,19.64
2022-09-10T08:44:35.622Z,19.69
2022-09-10T08:45:35.649Z,19.84
2022-09-10T08:46:35.636Z,19.77
2022-09-10T08:47:35.603Z,19.86
2022-09-10T08:48:35.678Z,19.81
2022-09-10T08:49:35.587Z,19.77
2022-09-10T08:50:35.580Z,19.86
2022-09-10T08:51:35.591Z,19.92
2022-09-10T08:52:35.562Z,20.06
2022-09-10T08:53:35.554Z,20.10
2022-09-10T08:54:35.549Z,20.18
2022-09-10T08:55:35.539Z,20.14
2022-09-10T08:56:35.568Z,20.28
2022-09-10T08:57:36.523Z,20.26
2022-09-10T08:58:35.517Z,20.11
2022-09-10T08:59:35.517Z,20.16
2022-09-10T09:00:35.493Z,20.13
2022-09-10T09:01:35.549Z,20.25
2022-09-10T09:02:48.892Z,20.21
2022-09-10T09:03:37.473Z,20.11
2022-09-10T09:04:35.473Z,20.03
2022-09-10T09:05:35.460Z,20.03
2022-09-10T09:06:35.471Z,19.99
2022-09-10T09:07:35.445Z,19.95
2022-09-10T09:08:35.438Z,19.99
2022-09-10T09:09:35.433Z,19.95
2022-09-10T09:10:35.447Z,19.94
2022-09-10T09:11:36.411Z,19.99
2022-09-10T09:12:35.409Z,20.07
2022-09-10T09:13:35.406Z,20.06
2022-09-10T09:14:35.398Z,20.09
2022-09-10T09:15:35.440Z,20.07
2022-09-10T09:16:35.379Z,20.16
2022-09-10T09:17:35.369Z,20.19
2022-09-10T09:18:35.364Z,20.31
2022-09-10T09:19:35.354Z,20.31
2022-09-10T09:20:35.370Z,20.31
2022-09-10T09:21:35.335Z,20.31
2022-09-10T09:22:39.796Z,20.40
2022-09-10T09:23:36.320Z,20.43
2022-09-10T09:24:35.318Z,20.69
2022-09-10T09:25:35.338Z,20.59
2022-09-10T09:26:35.298Z,20.63
2022-09-10T09:27:35.288Z,20.67
2022-09-10T09:28:35.281Z,20.59
2022-09-10T09:29:35.277Z,20.56
2022-09-10T09:30:35.297Z,20.58
2022-09-10T09:31:35.286Z,20.58
2022-09-10T09:32:35.247Z,20.52
2022-09-10T09:33:35.237Z,20.43
2022-09-10T09:34:35.229Z,20.47
2022-09-10T09:35:35.219Z,20.47
2022-09-10T09:36:35.236Z,20.58
2022-09-10T09:37:35.205Z,20.62
2022-09-10T09:38:35.300Z,20.82
2022-09-10T09:39:35.233Z,20.93
2022-09-10T09:40:35.187Z,21.09
2022-09-10T09:41:35.206Z,21.25
2022-09-10T09:42:35.170Z,21.50
2022-09-10T09:43:35.155Z,21.75
2022-09-10T09:44:35.151Z,21.72
2022-09-10T09:45:35.214Z,21.79
2022-09-10T09:46:35.165Z,21.96
2022-09-10T09:47:35.128Z,22.07
2022-09-10T09:48:35.122Z,22.13
2022-09-10T09:49:35.109Z,22.20
2022-09-10T09:50:35.107Z,22.44
2022-09-10T09:51:35.120Z,22.38
2022-09-10T09:52:35.090Z,22.50
2022-09-10T09:53:35.122Z,22.44
2022-09-10T09:55:03.254Z,22.33
2022-09-10T09:55:37.122Z,22.36
2022-09-10T09:56:35.100Z,22.39
2022-09-10T09:57:35.051Z,22.50
2022-09-10T09:58:35.046Z,22.62
2022-09-10T09:59:35.050Z,22.69
2022-09-10T10:00:35.032Z,22.80
2022-09-10T10:01:35.110Z,22.91
2022-09-10T10:02:35.075Z,22.87
2022-09-10T10:03:35.007Z,23.00
2022-09-10T10:04:37.047Z,23.21
2022-09-10T10:05:35.989Z,23.32
2022-09-10T10:06:35.007Z,23.32
2022-09-10T10:07:34.995Z,23.40
2022-09-10T10:08:34.973Z,23.55
2022-09-10T10:09:34.964Z,23.55
2022-09-10T10:10:34.951Z,23.87
2022-09-10T10:11:34.969Z,24.11
2022-09-10T10:12:34.937Z,24.18
2022-09-10T10:13:34.929Z,24.30
2022-09-10T10:14:34.926Z,24.50
2022-09-10T10:15:34.977Z,24.43
2022-09-10T10:16:34.929Z,24.43
2022-09-10T10:17:34.895Z,24.36
2022-09-10T10:18:34.890Z,24.50
2022-09-10T10:19:34.885Z,24.78
2022-09-10T10:20:34.877Z,25.06
2022-09-10T10:21:34.896Z,25.16
2022-09-10T10:22:34.891Z,25.07
2022-09-10T10:23:34.854Z,24.78
2022-09-10T10:24:34.844Z,24.53
2022-09-10T10:25:35.038Z,24.42
2022-09-10T10:26:34.910Z,24.51
2022-09-10T10:27:34.821Z,24.58
2022-09-10T10:28:34.818Z,24.63
2022-09-10T10:29:34.825Z,24.76
2022-09-10T10:30:34.798Z,24.50
2022-09-10T10:31:34.832Z,24.58
2022-09-10T10:32:34.781Z,24.66
2022-09-10T10:33:34.876Z,24.85
2022-09-10T10:34:34.806Z,24.99
2022-09-10T10:35:34.754Z,25.06
2022-09-10T10:36:34.777Z,25.06
2022-09-10T10:37:34.744Z,24.98
2022-09-10T10:38:34.756Z,24.78
2022-09-10T10:39:34.777Z,24.36
2022-09-10T10:40:34.713Z,24.35
2022-09-10T10:41:34.756Z,24.24
2022-09-10T10:42:34.760Z,24.26
2022-09-10T10:43:34.691Z,24.32
2022-09-10T10:44:34.691Z,24.29
2022-09-10T10:45:34.676Z,24.18
2022-09-10T10:46:34.721Z,24.03
2022-09-10T10:47:34.657Z,23.87
2022-09-10T10:48:34.652Z,23.87
2022-09-10T10:49:34.647Z,23.76
2022-09-10T10:50:34.639Z,23.54
2022-09-10T10:51:34.658Z,23.36
2022-09-10T10:52:34.638Z,23.23
2022-09-10T10:53:34.617Z,23.21
2022-09-10T10:54:34.617Z,23.18
2022-09-10T10:55:34.597Z,23.31
2022-09-10T10:56:35.046Z,23.36
2022-09-10T10:57:34.586Z,23.39
2022-09-10T10:58:34.574Z,23.21
2022-09-10T10:59:34.567Z,23.24
2022-09-10T11:00:34.572Z,23.31
2022-09-10T11:01:34.607Z,23.43
2022-09-10T11:02:34.575Z,23.56
2022-09-10T11:03:34.538Z,23.47
2022-09-10T11:04:34.566Z,23.58
2022-09-10T11:05:34.526Z,23.40
2022-09-10T11:06:34.544Z,23.31
2022-09-10T11:07:34.567Z,23.32
2022-09-10T11:08:34.523Z,23.18
2022-09-10T11:09:34.493Z,23.17
2022-09-10T11:10:34.491Z,23.13
2022-09-10T11:11:34.500Z,23.10
2022-09-10T11:12:34.472Z,23.21
2022-09-10T11:13:34.464Z,23.17
2022-09-10T11:14:34.459Z,23.36
2022-09-10T11:15:34.521Z,23.39
2022-09-10T11:16:37.396Z,23.61
2022-09-10T11:17:35.434Z,23.71
2022-09-10T11:18:34.426Z,23.76
2022-09-10T11:19:34.470Z,23.65
2022-09-10T11:20:34.416Z,23.46
2022-09-10T11:21:34.427Z,23.20
2022-09-10T11:22:34.397Z,23.25
2022-09-10T11:23:34.392Z,23.17
2022-09-10T11:24:34.381Z,22.90
2022-09-10T11:25:34.391Z,23.02
2022-09-10T11:26:34.391Z,23.12
2022-09-10T11:27:34.367Z,23.15
2022-09-10T11:28:34.357Z,23.25
2022-09-10T11:29:34.342Z,23.39
2022-09-10T11:30:34.549Z,23.37
2022-09-10T11:31:34.359Z,23.51
2022-09-10T11:32:34.323Z,23.58
2022-09-10T11:33:34.310Z,23.65
2022-09-10T11:34:34.306Z,23.69
2022-09-10T11:35:34.293Z,23.78
2022-09-10T11:36:34.309Z,23.74
2022-09-10T11:37:34.307Z,23.93
2022-09-10T11:38:34.258Z,24.13
2022-09-10T11:39:35.322Z,24.43
2022-09-10T11:40:34.259Z,24.70
2022-09-10T11:41:34.274Z,25.07
2022-09-10T11:42:34.242Z,25.32
2022-09-10T11:43:34.232Z,25.40
2022-09-10T11:44:36.474Z,25.53
2022-09-10T11:45:35.262Z,25.73
2022-09-10T11:46:34.351Z,25.77
2022-09-10T11:47:34.205Z,25.81
2022-09-10T11:48:34.200Z,25.85
2022-09-10T11:49:34.190Z,25.88
2022-09-10T11:50:35.004Z,26.00
2022-09-10T11:51:35.199Z,26.21
2022-09-10T11:52:34.171Z,26.15
2022-09-10T11:53:34.183Z,25.72
2022-09-10T11:54:34.145Z,25.65
2022-09-10T11:55:34.141Z,25.73
2022-09-10T11:56:34.215Z,25.78
2022-09-10T11:57:34.135Z,25.85
2022-09-10T11:58:34.173Z,25.88
2022-09-10T11:59:34.208Z,25.95
2022-09-10T12:00:34.104Z,26.09
2022-09-10T12:01:34.137Z,26.22
2022-09-10T12:02:34.085Z,26.43
2022-09-10T12:03:34.126Z,26.48
2022-09-10T12:04:36.888Z,26.25
2022-09-10T12:05:36.058Z,25.88
2022-09-10T12:06:34.377Z,25.48
2022-09-10T12:07:34.051Z,25.16
2022-09-10T12:08:34.038Z,24.85
2022-09-10T12:09:34.052Z,24.33
2022-09-10T12:10:34.033Z,24.08
2022-09-10T12:11:34.059Z,23.95
2022-09-10T12:12:34.009Z,23.93
2022-09-10T12:13:34.003Z,23.88
2022-09-10T12:14:33.995Z,23.86
2022-09-10T12:15:33.986Z,23.63
2022-09-10T12:16:34.005Z,23.74
2022-09-10T12:17:33.982Z,23.56
2022-09-10T12:18:33.961Z,23.48
2022-09-10T12:19:33.953Z,23.41
2022-09-10T12:20:33.948Z,23.27
2022-09-10T12:21:33.969Z,23.17
2022-09-10T12:22:33.933Z,23.15
2022-09-10T12:23:33.927Z,23.27
2022-09-10T12:24:33.916Z,23.21
2022-09-10T12:25:34.902Z,23.36
2022-09-10T12:26:34.930Z,23.27
2022-09-10T12:27:33.904Z,23.23
2022-09-10T12:28:33.899Z,23.25
2022-09-10T12:29:33.902Z,23.47
2022-09-10T12:30:33.878Z,23.55
2022-09-10T12:31:33.897Z,23.54
2022-09-10T12:32:33.875Z,23.71
2022-09-10T12:33:33.852Z,23.84
2022-09-10T12:34:33.839Z,24.01
2022-09-10T12:35:33.840Z,23.95
2022-09-10T12:36:33.877Z,23.92
2022-09-10T12:37:33.804Z,23.83
2022-09-10T12:38:34.808Z,23.83
2022-09-10T12:39:33.827Z,23.66
2022-09-10T12:40:33.791Z,23.61
2022-09-10T12:41:33.847Z,23.47
2022-09-10T12:42:33.778Z,23.24
2022-09-10T12:43:33.774Z,23.00
2022-09-10T12:44:33.765Z,22.84
2022-09-10T12:45:33.760Z,22.59
2022-09-10T12:46:33.807Z,22.43
2022-09-10T12:47:33.776Z,22.23
2022-09-10T12:48:33.738Z,22.00
2022-09-10T12:49:33.726Z,22.06
2022-09-10T12:50:33.719Z,21.91
2022-09-10T12:51:33.705Z,21.93
2022-09-10T12:52:33.731Z,21.99